Time;durP1;ratioP1;P1;durP2;ratioP2;P2;SDS_P1;SDS_P2;PMS_P1;PMS_P2;Temp;Humidity;BMP_temperature;BMP_pressure;BME280_temperature;BME280_humidity;BME280_pressure;Samples;Min_cycle;Max_cycle;Signal;HPM_P1;HPM_P2
2021/04/15 00:04:08;;;;;;;43.00;36.53;;;21.70;45.10;;;;;;4729056;55;20987;-41
2021/04/15 00:09:14;;;;;;;44.13;37.05;;;21.70;45.20;;;;;;4708079;55;21032;-40
2021/04/15 00:14:20;;;;;;;41.75;36.15;;;21.70;45.20;;;;;;4714394;55;21069;-40
2021/04/15 00:19:20;;;;;;;39.03;34.03;;;21.70;45.10;;;;;;4716200;55;21027;-31
2021/04/15 00:24:21;;;;;;;40.92;34.88;;;21.70;45.10;;;;;;4687662;59;21000;-39
2021/04/15 00:29:22;;;;;;;42.70;35.63;;;21.70;45.20;;;;;;4686933;59;21035;-43
2021/04/15 00:34:23;;;;;;;39.10;34.80;;;21.70;45.10;;;;;;4687821;59;21044;-42
2021/04/15 00:39:24;;;;;;;41.33;35.20;;;21.70;45.10;;;;;;4687554;59;21527;-43
2021/04/15 00:44:24;;;;;;;40.72;35.35;;;21.70;45.10;;;;;;4691756;55;21474;-43
2021/04/15 00:49:33;;;;;;;40.33;34.78;;;21.70;45.00;;;;;;4768917;55;21020;-42
2021/04/15 00:55:10;;;;;;;39.47;33.85;;;21.70;44.90;;;;;;4709304;55;21007;-33
2021/04/15 01:00:12;;;;;;;38.60;33.63;;;21.70;45.00;;;;;;4704692;55;21080;-44
2021/04/15 01:05:24;;;;;;;40.25;33.42;;;21.70;44.90;;;;;;4702666;55;21016;-40
2021/04/15 01:10:31;;;;;;;36.92;32.75;;;21.70;44.80;;;;;;4709479;55;21024;-34
2021/04/15 01:16:09;;;;;;;37.07;32.03;;;21.70;44.90;;;;;;4711064;55;21084;-42
2021/04/15 01:21:40;;;;;;;38.67;32.53;;;21.70;44.90;;;;;;4692215;55;21572;-38
2021/04/15 01:28:32;;;;;;;38.00;31.98;;;21.70;44.80;;;;;;4710043;55;21012;-40
2021/04/15 01:34:02;;;;;;;37.13;31.70;;;21.70;44.90;;;;;;4695851;55;21016;-43
2021/04/15 01:39:15;;;;;;;37.05;32.22;;;21.70;44.80;;;;;;4695129;55;21012;-38
2021/04/15 01:44:43;;;;;;;34.83;30.65;;;21.70;44.80;;;;;;4717360;55;21522;-41
2021/04/15 01:49:51;;;;;;;36.58;30.58;;;21.70;44.80;;;;;;4705828;55;20992;-38
2021/04/15 01:55:14;;;;;;;38.72;32.53;;;21.70;44.90;;;;;;4702263;55;21068;-41
2021/04/15 02:00:26;;;;;;;38.88;33.30;;;21.70;44.70;;;;;;4687961;59;20972;-39
2021/04/15 02:05:31;;;;;;;36.70;31.15;;;21.70;44.70;;;;;;4726521;55;21116;-43
2021/04/15 02:10:34;;;;;;;36.90;30.62;;;21.60;44.70;;;;;;4698876;55;21167;-33
2021/04/15 02:15:45;;;;;;;34.90;29.87;;;21.60;44.60;;;;;;4698633;55;21012;-41
2021/04/15 02:20:52;;;;;;;36.22;31.60;;;21.70;44.70;;;;;;4688609;59;21565;-42
2021/04/15 02:26:57;;;;;;;35.45;30.90;;;21.70;44.70;;;;;;4709725;55;21149;-42
2021/04/15 02:32:08;;;;;;;37.85;31.10;;;21.70;44.60;;;;;;4687956;59;21051;-40
2021/04/15 02:37:17;;;;;;;36.63;31.05;;;21.70;44.50;;;;;;4710118;55;20996;-42
2021/04/15 02:42:25;;;;;;;33.97;29.30;;;21.60;44.40;;;;;;4689828;55;21020;-32
2021/04/15 02:47:42;;;;;;;33.83;28.95;;;21.70;44.50;;;;;;4702879;55;21551;-31
2021/04/15 02:52:48;;;;;;;33.47;28.87;;;21.70;44.40;;;;;;4777700;55;21036;-32
2021/04/15 02:58:29;;;;;;;33.45;28.95;;;21.60;44.40;;;;;;4694792;55;21000;-40
2021/04/15 03:03:35;;;;;;;34.80;28.85;;;21.60;44.30;;;;;;4733493;55;21016;-39
2021/04/15 03:08:38;;;;;;;36.53;30.60;;;21.60;44.30;;;;;;4693310;55;21084;-31
2021/04/15 03:13:46;;;;;;;33.88;29.00;;;21.60;44.30;;;;;;4696018;55;21024;-39
2021/04/15 03:19:37;;;;;;;33.95;29.08;;;21.60;44.30;;;;;;4710773;55;21040;-36
2021/04/15 03:24:47;;;;;;;32.78;26.48;;;21.60;44.20;;;;;;4691278;55;20993;-43
2021/04/15 03:30:01;;;;;;;33.92;28.45;;;21.60;44.30;;;;;;4702269;55;21126;-38
2021/04/15 03:35:13;;;;;;;35.10;28.83;;;21.60;44.20;;;;;;4698721;55;20988;-34
2021/04/15 03:40:19;;;;;;;32.35;27.05;;;21.60;44.30;;;;;;4703081;55;22233;-40
2021/04/15 03:45:29;;;;;;;34.55;29.42;;;21.60;44.20;;;;;;4696618;55;21040;-33
2021/04/15 03:51:02;;;;;;;31.40;27.25;;;21.60;44.20;;;;;;4847313;55;21024;-28
2021/04/15 03:56:08;;;;;;;32.28;27.48;;;21.60;44.10;;;;;;4697169;55;20996;-37
2021/04/15 04:01:31;;;;;;;32.13;27.00;;;21.60;44.20;;;;;;4703054;55;21019;-36
2021/04/15 04:06:36;;;;;;;31.27;26.65;;;21.60;44.10;;;;;;4715298;55;21040;-35
2021/04/15 04:11:38;;;;;;;30.67;26.65;;;21.60;44.00;;;;;;4711701;55;22368;-36
2021/04/15 04:16:56;;;;;;;30.58;26.10;;;21.60;44.10;;;;;;4687575;59;21032;-37
2021/04/15 04:22:15;;;;;;;32.80;27.05;;;21.60;44.10;;;;;;4687545;59;21043;-36
2021/04/15 04:27:57;;;;;;;33.05;27.50;;;21.60;44.20;;;;;;4690073;55;21031;-33
2021/04/15 04:33:01;;;;;;;31.10;26.58;;;21.60;44.10;;;;;;4689759;55;21000;-37
2021/04/15 04:38:05;;;;;;;31.55;26.25;;;21.60;44.20;;;;;;4728716;55;21048;-30
2021/04/15 04:43:13;;;;;;;34.53;28.25;;;21.60;44.20;;;;;;4729966;55;21799;-36
2021/04/15 04:48:39;;;;;;;32.63;27.15;;;21.60;44.30;;;;;;4742497;55;21092;-35
2021/04/15 04:53:41;;;;;;;32.75;27.37;;;21.60;44.20;;;;;;4687803;59;21016;-34
2021/04/15 04:58:55;;;;;;;33.65;27.48;;;21.60;44.40;;;;;;4725128;55;21460;-40
2021/04/15 05:04:00;;;;;;;34.47;28.20;;;21.60;44.40;;;;;;4718536;55;21072;-37
2021/04/15 05:12:34;;;;;;;30.77;27.17;;;21.60;44.40;;;;;;4686901;59;21022;-31
2021/04/15 05:17:38;;;;;;;33.92;28.33;;;21.60;44.40;;;;;;4714015;55;21084;-30
2021/04/15 05:22:45;;;;;;;33.70;26.98;;;21.60;44.40;;;;;;4703796;55;21486;-31
2021/04/15 05:27:47;;;;;;;31.03;26.50;;;21.60;44.30;;;;;;4733268;55;21095;-33
2021/04/15 05:32:49;;;;;;;34.20;28.02;;;21.60;44.30;;;;;;4721563;55;21300;-38
2021/04/15 05:37:54;;;;;;;34.08;28.27;;;21.60;44.30;;;;;;4701532;55;21016;-32
2021/04/15 05:43:50;;;;;;;31.70;26.23;;;21.60;44.20;;;;;;4703613;55;21072;-43
2021/04/15 05:48:57;;;;;;;33.53;27.27;;;21.50;44.10;;;;;;4715722;55;21024;-39
2021/04/15 05:54:05;;;;;;;35.10;27.75;;;21.60;44.20;;;;;;4726020;55;21000;-41
2021/04/15 05:59:19;;;;;;;31.75;27.23;;;21.50;44.10;;;;;;4697612;55;21007;-37
2021/04/15 06:07:28;;;;;;;34.90;28.05;;;21.60;44.10;;;;;;4715336;55;20988;-32
2021/04/15 06:15:09;;;;;;;34.33;27.77;;;21.60;44.00;;;;;;4749673;55;21000;-43
2021/04/15 06:20:20;;;;;;;34.80;29.27;;;21.60;43.90;;;;;;4714633;55;21000;-35
2021/04/15 06:25:31;;;;;;;36.22;29.77;;;21.50;44.00;;;;;;4722087;55;21016;-36
2021/04/15 06:30:38;;;;;;;36.70;29.50;;;21.60;43.80;;;;;;4726528;55;21076;-32
2021/04/15 06:35:44;;;;;;;37.65;30.23;;;21.50;43.90;;;;;;4699746;55;21015;-37
2021/04/15 06:41:30;;;;;;;38.22;30.60;;;21.50;43.80;;;;;;4732310;55;21020;-37
2021/04/15 06:52:15;;;;;;;40.35;34.10;;;21.50;43.80;;;;;;4703350;55;21071;-36
2021/04/15 06:57:59;;;;;;;40.97;33.88;;;21.60;43.70;;;;;;4705761;55;21020;-34
2021/04/15 07:04:40;;;;;;;47.15;37.80;;;21.60;43.70;;;;;;4730228;55;21486;-33
2021/04/15 07:10:44;;;;;;;44.38;35.47;;;21.60;43.90;;;;;;4694327;55;21163;-33
2021/04/15 07:16:34;;;;;;;44.60;35.50;;;21.70;44.10;;;;;;4706693;55;21019;-32
2021/04/15 07:22:07;;;;;;;47.17;36.65;;;21.70;44.30;;;;;;4698358;55;21873;-34
2021/04/15 07:28:31;;;;;;;48.20;36.83;;;21.80;44.50;;;;;;4691738;55;21091;-37
2021/04/15 07:35:16;;;;;;;49.30;38.85;;;21.80;44.70;;;;;;4698587;55;21001;-38
2021/04/15 07:40:50;;;;;;;50.03;39.92;;;21.90;44.90;;;;;;4697314;55;21008;-34
2021/04/15 07:47:20;;;;;;;53.83;42.08;;;21.90;45.10;;;;;;4703833;55;21624;-39
2021/04/15 07:52:58;;;;;;;56.08;43.60;;;21.90;45.00;;;;;;4722504;55;21016;-38
2021/04/15 07:59:04;;;;;;;63.28;49.47;;;22.00;45.00;;;;;;4682991;59;21048;-32
2021/04/15 08:05:11;;;;;;;66.82;51.05;;;22.00;44.90;;;;;;4758992;55;21032;-34
2021/04/15 08:10:38;;;;;;;;;;;22.00;44.90;;;;;;4695201;55;21036;-39
2021/04/15 08:17:36;;;;;;;71.12;54.88;;;22.00;45.00;;;;;;4710203;55;21166;-34
2021/04/15 08:25:30;;;;;;;73.00;56.78;;;22.10;45.40;;;;;;4701588;55;21028;-29
2021/04/15 08:30:44;;;;;;;69.50;54.40;;;22.10;45.40;;;;;;4699471;55;21060;-37
2021/04/15 08:38:34;;;;;;;79.95;60.08;;;22.20;45.60;;;;;;4687127;59;21605;-31
2021/04/15 08:44:03;;;;;;;85.97;62.30;;;22.20;45.90;;;;;;4693653;55;21067;-34
2021/04/15 08:49:22;;;;;;;83.72;63.75;;;22.30;46.10;;;;;;4702288;55;21016;-36
2021/04/15 08:54:43;;;;;;;77.12;60.78;;;22.40;46.30;;;;;;4695546;55;20992;-29
2021/04/15 09:00:06;;;;;;;78.37;58.80;;;22.30;46.30;;;;;;4689341;55;21016;-32
2021/04/15 09:08:35;;;;;;;83.70;62.80;;;22.40;46.60;;;;;;4745169;55;21418;-29
2021/04/15 09:20:39;;;;;;;77.85;61.58;;;22.40;46.60;;;;;;4707234;55;21478;-33
2021/04/15 09:27:07;;;;;;;83.68;64.03;;;22.50;46.90;;;;;;4704642;55;21017;-31
2021/04/15 09:36:15;;;;;;;88.47;67.10;;;22.50;46.90;;;;;;4723233;55;21008;-35
2021/04/15 09:45:48;;;;;;;85.62;67.40;;;22.50;47.00;;;;;;4717842;55;21059;-37
2021/04/15 09:50:56;;;;;;;90.72;69.03;;;22.60;47.10;;;;;;4725744;55;21068;-36
2021/04/15 09:58:37;;;;;;;92.35;72.03;;;22.60;47.10;;;;;;4687225;59;21605;-37
2021/04/15 10:03:51;;;;;;;90.35;71.22;;;22.60;47.30;;;;;;4688447;55;21071;-36
2021/04/15 10:10:32;;;;;;;88.07;68.87;;;22.60;47.40;;;;;;4691057;55;21522;-31
2021/04/15 10:15:53;;;;;;;90.62;72.37;;;22.60;47.50;;;;;;4707767;55;21048;-32
2021/04/15 10:21:51;;;;;;;93.95;73.45;;;22.60;47.60;;;;;;4733249;55;21047;-33
2021/04/15 10:28:44;;;;;;;95.35;73.18;;;22.60;47.80;;;;;;4698619;55;21104;-40
2021/04/15 10:36:17;;;;;;;88.95;69.78;;;22.60;47.90;;;;;;4694024;55;21063;-31
2021/04/15 10:44:53;;;;;;;94.45;74.72;;;22.70;48.00;;;;;;4705684;55;21008;-33
2021/04/15 10:53:49;;;;;;;100.95;77.85;;;22.70;48.10;;;;;;4686141;59;21526;-36
2021/04/15 10:59:17;;;;;;;98.37;78.80;;;22.70;48.80;;;;;;4729825;55;21004;-30
2021/04/15 11:04:30;;;;;;;101.60;79.80;;;22.70;48.20;;;;;;4687854;59;20996;-35
2021/04/15 11:09:43;;;;;;;103.25;81.28;;;22.80;48.30;;;;;;4695701;55;21075;-30
2021/04/15 11:15:16;;;;;;;104.95;84.18;;;22.70;48.30;;;;;;4689881;55;21462;-37
2021/04/15 11:20:30;;;;;;;99.32;78.97;;;22.70;48.40;;;;;;4747124;55;21158;-34
2021/04/15 11:25:36;;;;;;;102.40;84.00;;;22.80;48.40;;;;;;4710514;55;21091;-37
2021/04/15 11:31:40;;;;;;;100.72;82.18;;;22.70;48.50;;;;;;4686565;56;22029;-32
2021/04/15 11:37:09;;;;;;;109.70;84.43;;;22.70;48.60;;;;;;4697766;55;21032;-32
2021/04/15 11:42:14;;;;;;;112.28;88.80;;;22.70;48.10;;;;;;4689692;55;21591;-34
2021/04/15 11:47:30;;;;;;;109.70;89.87;;;22.70;48.70;;;;;;4733484;55;21998;-33
2021/04/15 11:52:34;;;;;;;115.80;91.25;;;22.70;47.90;;;;;;4706900;55;20995;-33
2021/04/15 11:57:51;;;;;;;109.63;89.30;;;22.70;47.90;;;;;;4687249;59;21610;-33
2021/04/15 12:03:34;;;;;;;111.20;88.95;;;22.60;47.70;;;;;;4687324;59;21090;-33
2021/04/15 12:08:38;;;;;;;112.28;93.00;;;22.60;47.80;;;;;;4686419;59;21056;-33
2021/04/15 12:14:08;;;;;;;112.70;90.65;;;22.60;47.60;;;;;;4747840;55;21016;-38
2021/04/15 12:20:48;;;;;;;117.25;94.57;;;22.50;47.40;;;;;;4692489;55;21099;-29
2021/04/15 12:25:58;;;;;;;116.43;94.25;;;22.60;47.40;;;;;;4725909;55;21117;-36
2021/04/15 12:31:18;;;;;;;118.78;94.72;;;22.60;47.40;;;;;;4741790;55;21019;-29
2021/04/15 12:36:36;;;;;;;120.25;98.65;;;22.60;47.40;;;;;;4736119;55;21063;-40
2021/04/15 12:41:38;;;;;;;123.25;97.95;;;22.70;47.50;;;;;;4702498;55;21020;-29
2021/04/15 12:46:42;;;;;;;122.90;96.90;;;22.70;47.60;;;;;;4718623;55;21497;-30
2021/04/15 12:51:48;;;;;;;121.80;99.25;;;22.70;47.70;;;;;;4686923;59;21142;-34
2021/04/15 12:56:54;;;;;;;121.83;98.13;;;22.70;47.80;;;;;;4702743;55;21008;-39
2021/04/15 13:01:56;;;;;;;122.03;100.50;;;22.70;47.90;;;;;;4688377;55;21043;-32
2021/04/15 13:07:41;;;;;;;118.78;98.80;;;22.70;48.00;;;;;;4741442;55;21076;-38
2021/04/15 13:12:49;;;;;;;121.97;100.30;;;22.70;48.10;;;;;;4709179;55;21020;-33
2021/04/15 13:17:58;;;;;;;121.62;101.22;;;22.80;48.20;;;;;;4713077;55;21016;-37
2021/04/15 13:24:00;;;;;;;125.38;100.68;;;22.80;48.30;;;;;;4693288;55;21035;-31
2021/04/15 13:29:21;;;;;;;122.50;101.15;;;22.80;48.30;;;;;;4702214;55;21055;-39
2021/04/15 13:35:01;;;;;;;122.10;101.45;;;22.80;48.30;;;;;;4720537;55;21139;-34
2021/04/15 13:40:30;;;;;;;125.10;99.28;;;22.80;48.30;;;;;;4775048;55;21031;-41
2021/04/15 13:45:43;;;;;;;120.30;97.60;;;22.80;48.20;;;;;;4710795;55;21553;-33
2021/04/15 13:51:11;;;;;;;116.93;96.03;;;22.80;48.20;;;;;;4742390;55;20995;-38
2021/04/15 13:56:25;;;;;;;120.10;98.97;;;22.80;48.30;;;;;;4694141;55;21015;-34
2021/04/15 14:01:42;;;;;;;122.87;100.93;;;22.80;48.30;;;;;;4705189;55;21456;-41
2021/04/15 14:06:43;;;;;;;120.65;99.37;;;22.80;48.30;;;;;;4698134;55;21981;-40
2021/04/15 14:11:53;;;;;;;122.03;100.15;;;22.80;48.40;;;;;;4720924;55;21111;-40
2021/04/15 14:16:55;;;;;;;118.85;97.70;;;22.80;48.30;;;;;;4722482;55;21043;-42
2021/04/15 14:21:57;;;;;;;119.53;102.38;;;22.70;48.20;;;;;;4687349;59;21533;-39
2021/04/15 14:27:00;;;;;;;122.85;101.45;;;22.80;48.30;;;;;;4688338;55;21087;-38
2021/04/15 14:33:18;;;;;;;126.38;102.35;;;22.80;48.30;;;;;;4692563;55;21481;-32
2021/04/15 14:38:33;;;;;;;120.50;98.87;;;22.80;48.40;;;;;;4713540;55;21004;-35
2021/04/15 14:43:36;;;;;;;122.60;99.62;;;22.80;48.40;;;;;;4693170;55;21101;-44
2021/04/15 14:48:38;;;;;;;122.57;102.85;;;22.80;48.40;;;;;;4687333;59;21112;-31
2021/04/15 14:53:41;;;;;;;122.78;102.62;;;22.80;48.40;;;;;;4686992;59;21008;-39
2021/04/15 14:58:43;;;;;;;124.47;102.12;;;22.80;48.40;;;;;;4687339;59;21142;-36
2021/04/15 15:03:43;;;;;;;129.38;104.28;;;22.80;48.30;;;;;;4687672;59;21004;-37
2021/04/15 15:08:45;;;;;;;129.02;106.75;;;22.80;48.20;;;;;;4715123;55;21063;-33
2021/04/15 15:13:47;;;;;;;127.35;106.00;;;22.60;48.20;;;;;;4702636;55;21688;-38
2021/04/15 15:18:48;;;;;;;125.65;105.15;;;22.60;48.20;;;;;;4708565;55;22402;-43
2021/04/15 15:25:34;;;;;;;126.07;106.75;;;22.50;48.10;;;;;;4728125;55;21004;-33
2021/04/15 15:30:41;;;;;;;129.48;106.45;;;22.50;48.00;;;;;;4694348;55;21044;-42
2021/04/15 15:35:43;;;;;;;132.57;112.10;;;22.50;47.90;;;;;;4703753;55;20980;-41
2021/04/15 15:40:44;;;;;;;134.98;113.53;;;22.40;47.70;;;;;;4732857;55;21490;-42
2021/04/15 15:45:49;;;;;;;138.07;113.18;;;22.40;47.70;;;;;;4687316;59;21023;-38
2021/04/15 15:50:54;;;;;;;137.40;115.00;;;22.40;47.60;;;;;;4726079;55;21024;-39
2021/04/15 15:55:56;;;;;;;132.55;111.03;;;22.40;47.60;;;;;;4694293;55;21123;-39
2021/04/15 16:01:10;;;;;;;143.02;119.87;;;22.30;47.50;;;;;;4726178;55;21080;-41
2021/04/15 16:06:23;;;;;;;131.52;110.28;;;22.30;47.50;;;;;;4748644;55;20993;-35
2021/04/15 16:11:45;;;;;;;136.43;113.70;;;22.30;47.40;;;;;;4692687;55;21124;-40
2021/04/15 16:16:50;;;;;;;135.57;115.68;;;22.30;47.30;;;;;;4688051;59;21111;-36
2021/04/15 16:21:55;;;;;;;136.60;114.90;;;22.20;47.20;;;;;;4688248;55;21012;-36
2021/04/15 16:27:01;;;;;;;147.23;121.28;;;22.20;47.30;;;;;;4689610;55;21051;-40
2021/04/15 16:32:03;;;;;;;136.77;117.68;;;22.20;47.20;;;;;;4687771;57;21056;-45
2021/04/15 16:37:08;;;;;;;140.77;117.60;;;22.20;47.10;;;;;;4699052;55;21008;-36
2021/04/15 16:42:13;;;;;;;143.00;117.10;;;22.20;47.00;;;;;;4693506;55;21087;-43
2021/04/15 16:47:14;;;;;;;136.65;114.57;;;22.10;46.90;;;;;;4713974;55;21068;-36
2021/04/15 16:52:18;;;;;;;134.15;113.20;;;22.10;46.90;;;;;;4688722;55;21011;-35
2021/04/15 16:57:19;;;;;;;137.37;114.93;;;22.10;46.90;;;;;;4733002;55;21015;-43
2021/04/15 17:02:20;;;;;;;137.45;116.97;;;22.10;46.80;;;;;;4689217;55;21024;-39
2021/04/15 17:07:25;;;;;;;140.12;120.40;;;22.10;46.70;;;;;;4748963;55;21036;-37
2021/04/15 17:12:26;;;;;;;137.80;115.03;;;22.10;46.60;;;;;;4706420;55;21590;-37
2021/04/15 17:17:27;;;;;;;144.25;121.00;;;22.10;46.60;;;;;;4731997;55;21044;-46
2021/04/15 17:22:28;;;;;;;144.65;120.55;;;22.10;46.50;;;;;;4724581;55;21099;-42
2021/04/15 17:27:29;;;;;;;145.62;122.90;;;22.10;46.50;;;;;;4703176;55;21144;-35
2021/04/15 17:32:30;;;;;;;143.07;123.60;;;22.10;46.40;;;;;;4689047;59;21601;-41
2021/04/15 17:37:32;;;;;;;134.20;115.57;;;22.10;46.40;;;;;;4699137;55;21109;-41
2021/04/15 17:42:34;;;;;;;140.23;119.18;;;22.10;46.40;;;;;;4687890;59;21068;-39
2021/04/15 17:47:35;;;;;;;140.70;119.50;;;22.10;46.20;;;;;;4753830;55;21652;-43
2021/04/15 17:52:35;;;;;;;142.77;122.43;;;22.10;46.30;;;;;;4687995;56;21084;-41
2021/04/15 17:57:37;;;;;;;141.00;119.25;;;22.10;46.10;;;;;;4688709;55;21000;-44
2021/04/15 18:02:37;;;;;;;144.93;121.45;;;22.00;46.20;;;;;;4715545;55;21138;-44
2021/04/15 18:07:38;;;;;;;142.05;120.65;;;22.00;46.20;;;;;;4687169;59;21083;-44
2021/04/15 18:12:40;;;;;;;143.07;120.68;;;22.00;46.00;;;;;;4687508;59;21501;-37
2021/04/15 18:17:41;;;;;;;146.75;123.82;;;22.00;45.90;;;;;;4701877;55;21012;-40
2021/04/15 18:22:42;;;;;;;140.60;120.72;;;22.00;45.90;;;;;;4702096;55;21024;-32
2021/04/15 18:27:43;;;;;;;138.95;118.82;;;22.00;45.80;;;;;;4701045;55;21116;-39
2021/04/15 18:32:44;;;;;;;142.55;120.75;;;22.00;45.80;;;;;;4701650;55;21008;-35
2021/04/15 18:37:45;;;;;;;140.57;119.00;;;22.00;45.70;;;;;;4702349;55;21486;-45
2021/04/15 18:42:46;;;;;;;137.15;117.93;;;22.00;45.70;;;;;;4701207;55;21004;-33
2021/04/15 18:47:48;;;;;;;138.88;119.90;;;22.00;45.70;;;;;;4752595;55;21040;-32
2021/04/15 18:52:49;;;;;;;141.40;116.90;;;22.00;45.60;;;;;;4696286;55;21346;-44
2021/04/15 18:57:51;;;;;;;140.77;119.93;;;22.00;45.70;;;;;;4764437;55;22010;-44
2021/04/15 19:02:53;;;;;;;138.57;118.47;;;22.00;45.50;;;;;;4688384;59;21015;-43
2021/04/15 19:07:54;;;;;;;139.60;118.62;;;22.00;45.60;;;;;;4733483;55;21060;-41
2021/04/15 19:12:55;;;;;;;143.98;121.07;;;22.00;45.50;;;;;;4709254;55;21486;-44
2021/04/15 19:17:57;;;;;;;133.87;113.68;;;21.90;45.40;;;;;;4688034;59;21072;-41
2021/04/15 19:22:58;;;;;;;132.30;115.07;;;22.00;45.40;;;;;;4716938;55;21052;-41
2021/04/15 19:28:02;;;;;;;138.57;120.35;;;22.00;45.40;;;;;;4693316;55;22022;-43
2021/04/15 19:33:04;;;;;;;133.77;113.78;;;21.90;45.30;;;;;;4720780;55;21124;-45
2021/04/15 19:38:11;;;;;;;134.45;113.55;;;21.90;46.00;;;;;;4687642;59;21040;-43
2021/04/15 19:43:12;;;;;;;129.07;109.63;;;21.90;45.10;;;;;;4688865;59;20976;-38
2021/04/15 19:48:16;;;;;;;130.90;112.22;;;21.90;45.20;;;;;;4742895;55;21139;-44
2021/04/15 19:53:19;;;;;;;129.10;111.47;;;21.90;45.00;;;;;;4744804;55;21012;-38
2021/04/15 19:58:25;;;;;;;134.15;112.55;;;21.90;45.70;;;;;;4711257;55;22125;-45
2021/04/15 20:03:26;;;;;;;134.98;114.30;;;21.90;45.10;;;;;;4793171;55;21490;-31
2021/04/15 20:08:41;;;;;;;133.95;113.60;;;21.90;44.90;;;;;;4696995;55;21598;-34
2021/04/15 20:13:43;;;;;;;129.25;110.32;;;21.90;44.80;;;;;;4695197;55;21493;-40
2021/04/15 20:18:44;;;;;;;126.70;107.55;;;21.90;44.80;;;;;;4720356;55;21056;-39
2021/04/15 20:23:45;;;;;;;124.95;104.45;;;21.90;44.90;;;;;;4738623;55;21039;-43
2021/04/15 20:28:46;;;;;;;129.50;110.05;;;21.90;44.70;;;;;;4719554;55;21028;-41
2021/04/15 20:33:47;;;;;;;125.22;107.15;;;21.90;44.70;;;;;;4692679;55;21487;-38
2021/04/15 20:38:49;;;;;;;126.07;105.50;;;21.90;44.60;;;;;;4687553;59;21020;-44
2021/04/15 20:43:50;;;;;;;129.85;109.87;;;21.90;44.60;;;;;;4751594;55;20998;-43
2021/04/15 20:49:00;;;;;;;121.03;106.15;;;21.90;44.40;;;;;;4717962;55;21569;-35
2021/04/15 20:54:01;;;;;;;124.97;108.65;;;21.90;44.50;;;;;;4695967;55;21982;-44
2021/04/15 20:59:03;;;;;;;118.28;99.85;;;21.90;44.50;;;;;;4705264;55;21139;-35
2021/04/15 21:04:04;;;;;;;118.30;101.78;;;21.90;44.40;;;;;;4779862;55;21518;-46
2021/04/15 21:09:06;;;;;;;120.32;103.55;;;21.80;44.40;;;;;;4703269;55;21100;-40
2021/04/15 21:14:07;;;;;;;119.18;100.87;;;21.90;44.30;;;;;;4687821;55;21092;-38
2021/04/15 21:19:11;;;;;;;119.37;100.68;;;21.80;44.30;;;;;;4708323;55;20988;-40
2021/04/15 21:24:12;;;;;;;118.30;100.75;;;21.90;44.30;;;;;;4695201;55;21069;-44
2021/04/15 21:29:13;;;;;;;118.37;101.07;;;21.80;44.30;;;;;;4695210;55;22050;-44
2021/04/15 21:34:17;;;;;;;118.32;97.65;;;21.80;44.10;;;;;;4688017;59;21096;-44
2021/04/15 21:39:20;;;;;;;121.62;104.57;;;21.80;44.10;;;;;;4689697;55;21048;-41
2021/04/15 21:44:21;;;;;;;119.15;99.18;;;21.80;44.00;;;;;;4704996;55;21068;-43
2021/04/15 21:49:22;;;;;;;111.40;94.15;;;21.80;44.00;;;;;;4688808;55;21076;-33
2021/04/15 21:54:23;;;;;;;112.12;95.03;;;21.80;44.10;;;;;;4714188;55;21020;-41
2021/04/15 21:59:23;;;;;;;109.07;93.40;;;21.80;43.90;;;;;;4708260;55;21043;-44
2021/04/15 22:04:24;;;;;;;111.53;93.82;;;21.80;43.90;;;;;;4687952;59;21871;-44
2021/04/15 22:09:29;;;;;;;111.68;92.40;;;21.80;43.90;;;;;;4688223;55;21028;-45
2021/04/15 22:14:30;;;;;;;107.25;91.35;;;21.80;43.70;;;;;;4822458;55;21056;-42
2021/04/15 22:19:31;;;;;;;107.32;88.90;;;21.80;43.70;;;;;;4725625;55;21140;-31
2021/04/15 22:24:39;;;;;;;106.35;88.87;;;21.80;43.60;;;;;;4721782;55;21127;-43
2021/04/15 22:29:41;;;;;;;102.05;87.30;;;21.80;43.70;;;;;;4686555;59;21029;-44
2021/04/15 22:34:42;;;;;;;106.07;88.07;;;21.80;43.60;;;;;;4688982;59;20988;-44
2021/04/15 22:39:44;;;;;;;103.28;88.35;;;21.80;43.50;;;;;;4717876;55;21091;-46
2021/04/15 22:44:45;;;;;;;102.40;85.43;;;21.80;43.50;;;;;;4705279;55;21095;-39
2021/04/15 22:49:47;;;;;;;103.18;86.00;;;21.80;43.50;;;;;;4691573;55;21084;-43
2021/04/15 22:54:48;;;;;;;104.55;86.47;;;21.80;43.40;;;;;;4719064;55;21052;-40
2021/04/15 22:59:52;;;;;;;98.43;84.55;;;21.80;43.40;;;;;;4696026;55;21015;-33
2021/04/15 23:04:53;;;;;;;97.93;82.90;;;21.80;43.30;;;;;;4689231;55;21510;-44
2021/04/15 23:09:54;;;;;;;98.80;82.80;;;21.80;43.30;;;;;;4766259;55;21056;-44
2021/04/15 23:14:55;;;;;;;100.03;83.45;;;21.80;43.20;;;;;;4690476;55;21004;-44
2021/04/15 23:19:56;;;;;;;95.95;81.10;;;21.80;43.20;;;;;;4690668;55;21498;-40
2021/04/15 23:24:57;;;;;;;97.00;81.43;;;21.80;43.20;;;;;;4690129;55;21012;-46
2021/04/15 23:29:58;;;;;;;94.07;79.07;;;21.80;43.10;;;;;;4765062;55;21024;-42
2021/04/15 23:34:59;;;;;;;96.05;80.07;;;21.70;43.00;;;;;;4715915;55;21297;-44
2021/04/15 23:40:00;;;;;;;92.65;77.45;;;21.70;42.90;;;;;;4716648;55;21008;-41
2021/04/15 23:45:01;;;;;;;94.47;79.03;;;21.70;42.90;;;;;;4705831;55;20996;-42
2021/04/15 23:50:05;;;;;;;90.35;77.20;;;21.70;42.80;;;;;;4697313;55;21530;-39
2021/04/15 23:55:08;;;;;;;93.97;76.97;;;21.70;42.80;;;;;;4708339;55;21486;-37
